N139FJ KD95-KMKE
Flight info
| Callsign | N139FJ |
|---|---|
| Flight time | N/A |
| Altitude | 8000 |
| Route | URSSA T616 FNT SQUIB |
| Aircraft | DA62/L-SDFGRY/C |
Departure
| Time | N/A |
|---|---|
| Airport | KD95 |
Arrival
| Time | 2026-04-26 19:41 |
|---|---|
| Airport | General Mitchell International Airport (KMKE) |
| Time | Latitude | Longitude | Altitude | Speed | Heading |
|---|---|---|---|---|---|
| 2026-04-26 18:03 | 43.06641 | -83.27384 | 836 ft | 0 kts | 85° |
| 2026-04-26 18:06 | 43.06641 | -83.27383 | 836 ft | 0 kts | 85° |
| 2026-04-26 18:06 | 43.06649 | -83.27339 | 837 ft | 8 kts | 86° |
| 2026-04-26 18:07 | 43.06681 | -83.27311 | 836 ft | 8 kts | 360° |
| 2026-04-26 18:07 | 43.06767 | -83.27315 | 837 ft | 16 kts | 358° |
| 2026-04-26 18:07 | 43.06900 | -83.27323 | 834 ft | 21 kts | 356° |
| 2026-04-26 18:07 | 43.07000 | -83.27329 | 837 ft | 23 kts | 357° |
| 2026-04-26 18:08 | 43.07198 | -83.27343 | 836 ft | 13 kts | 2° |
| 2026-04-26 18:08 | 43.07218 | -83.27328 | 836 ft | 0 kts | 71° |
| 2026-04-26 18:13 | 43.07218 | -83.27327 | 836 ft | 1 kts | 72° |
| 2026-04-26 18:13 | 43.07220 | -83.27271 | 836 ft | 10 kts | 104° |
| 2026-04-26 18:13 | 43.07191 | -83.27249 | 836 ft | 7 kts | 177° |
| 2026-04-26 18:14 | 43.06847 | -83.27227 | 838 ft | 72 kts | 178° |
| 2026-04-26 18:14 | 43.06271 | -83.27205 | 1002 ft | 86 kts | 184° |
| 2026-04-26 18:14 | 43.05703 | -83.27591 | 1215 ft | 99 kts | 228° |
| 2026-04-26 18:14 | 43.05446 | -83.28529 | 1419 ft | 117 kts | 269° |
| 2026-04-26 18:15 | 43.05577 | -83.29674 | 1601 ft | 127 kts | 292° |
| 2026-04-26 18:15 | 43.05841 | -83.30909 | 1728 ft | 145 kts | 282° |
| 2026-04-26 18:15 | 43.05791 | -83.32318 | 1986 ft | 149 kts | 259° |
| 2026-04-26 18:15 | 43.05669 | -83.33739 | 2277 ft | 150 kts | 264° |
| 2026-04-26 18:16 | 43.05566 | -83.35169 | 2601 ft | 154 kts | 263° |
| 2026-04-26 18:16 | 43.05343 | -83.38045 | 3391 ft | 149 kts | 261° |
| 2026-04-26 18:16 | 43.05338 | -83.38103 | 3411 ft | 149 kts | 261° |
| 2026-04-26 18:17 | 43.05226 | -83.39539 | 3613 ft | 153 kts | 261° |
| 2026-04-26 18:17 | 43.05111 | -83.41005 | 3947 ft | 156 kts | 263° |
| 2026-04-26 18:17 | 43.04994 | -83.42493 | 4223 ft | 157 kts | 263° |
| 2026-04-26 18:17 | 43.04878 | -83.43976 | 4535 ft | 157 kts | 263° |
| 2026-04-26 18:18 | 43.04760 | -83.45455 | 4875 ft | 155 kts | 263° |
| 2026-04-26 18:18 | 43.04643 | -83.46920 | 5143 ft | 158 kts | 262° |
| 2026-04-26 18:18 | 43.04300 | -83.48340 | 5408 ft | 155 kts | 247° |
| 2026-04-26 18:18 | 43.03907 | -83.49695 | 5716 ft | 154 kts | 249° |
| 2026-04-26 18:19 | 43.03515 | -83.51065 | 5968 ft | 153 kts | 249° |
| 2026-04-26 18:19 | 43.03130 | -83.52406 | 6290 ft | 151 kts | 249° |
| 2026-04-26 18:19 | 43.02748 | -83.53730 | 6551 ft | 149 kts | 249° |
| 2026-04-26 18:19 | 43.02369 | -83.55037 | 6832 ft | 147 kts | 250° |
| 2026-04-26 18:20 | 43.01995 | -83.56336 | 7103 ft | 147 kts | 249° |
| 2026-04-26 18:20 | 43.01617 | -83.57643 | 7350 ft | 148 kts | 249° |
| 2026-04-26 18:20 | 43.01240 | -83.58948 | 7583 ft | 148 kts | 249° |
| 2026-04-26 18:20 | 43.00992 | -83.59808 | 7787 ft | 146 kts | 249° |
| 2026-04-26 18:21 | 43.00481 | -83.61576 | 7955 ft | 158 kts | 249° |
| 2026-04-26 18:21 | 43.00061 | -83.63030 | 7957 ft | 170 kts | 249° |
| 2026-04-26 18:21 | 42.99614 | -83.64567 | 7962 ft | 178 kts | 249° |
| 2026-04-26 18:21 | 42.99151 | -83.66165 | 7960 ft | 184 kts | 249° |
| 2026-04-26 18:22 | 42.98676 | -83.67796 | 7966 ft | 186 kts | 249° |
| 2026-04-26 18:22 | 42.98195 | -83.69456 | 7963 ft | 189 kts | 249° |
| 2026-04-26 18:22 | 42.97709 | -83.71129 | 7968 ft | 190 kts | 249° |
| 2026-04-26 18:22 | 42.97221 | -83.72810 | 7964 ft | 189 kts | 249° |
| 2026-04-26 18:23 | 42.96814 | -83.74426 | 7948 ft | 173 kts | 259° |
| 2026-04-26 18:23 | 42.96797 | -83.75995 | 7946 ft | 160 kts | 277° |
| 2026-04-26 18:23 | 42.96945 | -83.77430 | 7948 ft | 150 kts | 277° |
| 2026-04-26 18:23 | 42.97079 | -83.78813 | 7949 ft | 142 kts | 277° |
| 2026-04-26 18:24 | 42.97205 | -83.80129 | 7943 ft | 138 kts | 277° |
| 2026-04-26 18:24 | 42.97329 | -83.81401 | 7946 ft | 133 kts | 277° |
| 2026-04-26 18:24 | 42.97450 | -83.82630 | 7948 ft | 130 kts | 277° |
| 2026-04-26 18:24 | 42.97567 | -83.83841 | 7952 ft | 128 kts | 277° |
| 2026-04-26 18:25 | 42.97683 | -83.85036 | 7950 ft | 126 kts | 277° |
| 2026-04-26 18:25 | 42.97797 | -83.86203 | 7948 ft | 123 kts | 278° |
| 2026-04-26 18:25 | 42.97908 | -83.87363 | 7947 ft | 123 kts | 278° |
| 2026-04-26 18:25 | 42.98020 | -83.88517 | 7953 ft | 122 kts | 277° |
| 2026-04-26 18:26 | 42.98132 | -83.89662 | 7944 ft | 121 kts | 277° |
| 2026-04-26 18:26 | 42.98239 | -83.90791 | 7948 ft | 120 kts | 278° |
| 2026-04-26 18:26 | 42.98348 | -83.91915 | 7948 ft | 120 kts | 275° |
| 2026-04-26 18:26 | 42.98458 | -83.93041 | 7949 ft | 119 kts | 276° |
| 2026-04-26 18:27 | 42.98563 | -83.94149 | 7953 ft | 118 kts | 276° |
| 2026-04-26 18:27 | 42.98672 | -83.95264 | 7951 ft | 119 kts | 276° |
| 2026-04-26 18:27 | 42.98779 | -83.96383 | 7952 ft | 119 kts | 276° |
| 2026-04-26 18:27 | 42.98887 | -83.97504 | 7949 ft | 119 kts | 276° |
| 2026-04-26 18:28 | 42.98994 | -83.98620 | 7946 ft | 118 kts | 276° |
| 2026-04-26 18:28 | 42.99099 | -83.99722 | 7946 ft | 116 kts | 276° |
| 2026-04-26 18:28 | 42.99202 | -84.00804 | 7945 ft | 114 kts | 276° |
| 2026-04-26 18:28 | 42.99305 | -84.01874 | 7947 ft | 112 kts | 276° |
| 2026-04-26 18:29 | 42.99405 | -84.02927 | 7953 ft | 113 kts | 275° |
| 2026-04-26 18:29 | 42.99508 | -84.03995 | 7951 ft | 114 kts | 275° |
| 2026-04-26 18:29 | 42.99609 | -84.05061 | 7964 ft | 113 kts | 275° |
| 2026-04-26 18:29 | 42.99712 | -84.06138 | 7952 ft | 115 kts | 276° |
| 2026-04-26 18:30 | 42.99780 | -84.06858 | 7951 ft | 115 kts | 276° |
| 2026-04-26 18:30 | 42.99884 | -84.07945 | 7953 ft | 116 kts | 276° |
| 2026-04-26 18:30 | 43.00023 | -84.09416 | 7954 ft | 118 kts | 276° |
| 2026-04-26 18:30 | 43.00128 | -84.10530 | 7958 ft | 119 kts | 276° |
| 2026-04-26 18:31 | 43.00235 | -84.11649 | 7964 ft | 118 kts | 276° |
| 2026-04-26 18:31 | 43.00339 | -84.12761 | 7955 ft | 118 kts | 276° |
| 2026-04-26 18:31 | 43.00441 | -84.13834 | 8017 ft | 111 kts | 275° |
| 2026-04-26 18:31 | 43.00539 | -84.14875 | 8021 ft | 112 kts | 276° |
| 2026-04-26 18:32 | 43.00638 | -84.15921 | 8032 ft | 110 kts | 276° |
| 2026-04-26 18:32 | 43.00737 | -84.16969 | 8029 ft | 112 kts | 276° |
| 2026-04-26 18:32 | 43.00836 | -84.18023 | 8020 ft | 112 kts | 276° |
| 2026-04-26 18:32 | 43.00935 | -84.19073 | 8022 ft | 112 kts | 275° |
| 2026-04-26 18:33 | 43.01034 | -84.20128 | 8021 ft | 112 kts | 275° |
| 2026-04-26 18:33 | 43.01132 | -84.21172 | 8023 ft | 111 kts | 275° |
| 2026-04-26 18:33 | 43.01230 | -84.22218 | 8024 ft | 112 kts | 275° |
| 2026-04-26 18:33 | 43.01329 | -84.23268 | 8025 ft | 112 kts | 276° |
| 2026-04-26 18:34 | 43.01427 | -84.24323 | 8024 ft | 112 kts | 275° |
| 2026-04-26 18:34 | 43.01527 | -84.25381 | 8022 ft | 112 kts | 276° |
| 2026-04-26 18:34 | 43.01624 | -84.26421 | 8018 ft | 111 kts | 276° |
| 2026-04-26 18:34 | 43.01720 | -84.27457 | 8022 ft | 109 kts | 275° |
| 2026-04-26 18:35 | 43.01815 | -84.28481 | 8016 ft | 107 kts | 275° |
| 2026-04-26 18:35 | 43.01908 | -84.29495 | 8025 ft | 109 kts | 273° |
| 2026-04-26 18:35 | 43.02005 | -84.30518 | 8031 ft | 108 kts | 273° |
| 2026-04-26 18:35 | 43.02099 | -84.31540 | 8021 ft | 108 kts | 273° |
| 2026-04-26 18:36 | 43.02192 | -84.32548 | 8031 ft | 108 kts | 273° |
| 2026-04-26 18:36 | 43.02286 | -84.33560 | 8022 ft | 107 kts | 273° |
| 2026-04-26 18:36 | 43.02380 | -84.34563 | 8026 ft | 106 kts | 273° |
| 2026-04-26 18:36 | 43.02473 | -84.35569 | 8022 ft | 108 kts | 274° |
| 2026-04-26 18:37 | 43.02566 | -84.36578 | 8028 ft | 106 kts | 273° |
| 2026-04-26 18:37 | 43.02658 | -84.37594 | 8026 ft | 109 kts | 274° |
| 2026-04-26 18:37 | 43.02750 | -84.38628 | 8027 ft | 110 kts | 274° |
| 2026-04-26 18:37 | 43.02843 | -84.39658 | 8023 ft | 108 kts | 273° |
| 2026-04-26 18:38 | 43.02930 | -84.40681 | 8025 ft | 109 kts | 274° |
| 2026-04-26 18:38 | 43.03018 | -84.41710 | 8031 ft | 110 kts | 274° |
| 2026-04-26 18:38 | 43.03106 | -84.42771 | 8026 ft | 114 kts | 273° |
| 2026-04-26 18:38 | 43.03193 | -84.43841 | 8029 ft | 113 kts | 272° |
| 2026-04-26 18:39 | 43.03277 | -84.44912 | 8033 ft | 114 kts | 272° |
| 2026-04-26 18:39 | 43.03360 | -84.46007 | 8027 ft | 117 kts | 271° |
| 2026-04-26 18:39 | 43.03438 | -84.47109 | 8017 ft | 116 kts | 273° |
| 2026-04-26 18:39 | 43.03531 | -84.48203 | 8034 ft | 117 kts | 278° |
| 2026-04-26 18:40 | 43.03690 | -84.49305 | 8029 ft | 119 kts | 276° |
| 2026-04-26 18:40 | 43.03816 | -84.50433 | 8029 ft | 121 kts | 276° |
| 2026-04-26 18:40 | 43.03931 | -84.51564 | 8022 ft | 119 kts | 275° |
| 2026-04-26 18:40 | 43.04036 | -84.52675 | 8017 ft | 117 kts | 275° |
| 2026-04-26 18:41 | 43.04138 | -84.53770 | 8016 ft | 116 kts | 275° |
| 2026-04-26 18:41 | 43.04238 | -84.54860 | 8025 ft | 115 kts | 275° |
| 2026-04-26 18:41 | 43.04337 | -84.55936 | 8018 ft | 113 kts | 274° |
| 2026-04-26 18:41 | 43.04432 | -84.57001 | 8018 ft | 114 kts | 275° |
| 2026-04-26 18:42 | 43.04530 | -84.58080 | 8019 ft | 114 kts | 274° |
| 2026-04-26 18:42 | 43.04627 | -84.59151 | 8026 ft | 116 kts | 274° |
| 2026-04-26 18:42 | 43.04726 | -84.60247 | 8026 ft | 116 kts | 274° |
| 2026-04-26 18:42 | 43.04825 | -84.61344 | 8020 ft | 115 kts | 274° |
| 2026-04-26 18:43 | 43.04923 | -84.62429 | 8014 ft | 115 kts | 273° |
| 2026-04-26 18:43 | 43.05020 | -84.63514 | 8014 ft | 115 kts | 273° |
| 2026-04-26 18:43 | 43.05119 | -84.64610 | 8018 ft | 117 kts | 274° |
| 2026-04-26 18:43 | 43.05220 | -84.65723 | 8017 ft | 118 kts | 273° |
| 2026-04-26 18:44 | 43.05317 | -84.66825 | 8018 ft | 116 kts | 272° |
| 2026-04-26 18:44 | 43.05413 | -84.67913 | 8014 ft | 115 kts | 274° |
| 2026-04-26 18:44 | 43.05482 | -84.68651 | 8007 ft | 115 kts | 273° |
| 2026-04-26 18:44 | 43.05576 | -84.69714 | 8015 ft | 113 kts | 271° |
| 2026-04-26 18:45 | 43.05673 | -84.70794 | 8012 ft | 116 kts | 274° |
| 2026-04-26 18:45 | 43.05770 | -84.71884 | 8014 ft | 117 kts | 271° |
| 2026-04-26 18:45 | 43.05869 | -84.72998 | 8009 ft | 119 kts | 271° |
| 2026-04-26 18:45 | 43.05969 | -84.74102 | 8015 ft | 116 kts | 271° |
| 2026-04-26 18:46 | 43.06066 | -84.75202 | 8011 ft | 116 kts | 271° |
| 2026-04-26 18:46 | 43.06164 | -84.76301 | 8009 ft | 115 kts | 273° |
| 2026-04-26 18:46 | 43.06262 | -84.77385 | 8015 ft | 117 kts | 272° |
| 2026-04-26 18:46 | 43.06359 | -84.78508 | 8015 ft | 120 kts | 271° |
| 2026-04-26 18:47 | 43.06460 | -84.79633 | 8010 ft | 118 kts | 271° |
| 2026-04-26 18:47 | 43.06557 | -84.80734 | 8019 ft | 116 kts | 271° |
| 2026-04-26 18:47 | 43.06654 | -84.81829 | 8011 ft | 115 kts | 271° |
| 2026-04-26 18:47 | 43.06749 | -84.82900 | 8004 ft | 113 kts | 271° |
| 2026-04-26 18:48 | 43.06840 | -84.83956 | 8014 ft | 112 kts | 270° |
| 2026-04-26 18:48 | 43.06937 | -84.85024 | 8011 ft | 114 kts | 271° |
| 2026-04-26 18:48 | 43.07028 | -84.86119 | 8030 ft | 121 kts | 271° |
| 2026-04-26 18:48 | 43.07139 | -84.87414 | 8025 ft | 149 kts | 274° |
| 2026-04-26 18:49 | 43.07273 | -84.88911 | 8017 ft | 167 kts | 274° |
| 2026-04-26 18:49 | 43.07416 | -84.90541 | 8012 ft | 178 kts | 274° |
| 2026-04-26 18:49 | 43.07570 | -84.92250 | 8021 ft | 184 kts | 273° |
| 2026-04-26 18:49 | 43.07722 | -84.94014 | 8023 ft | 189 kts | 272° |
| 2026-04-26 18:50 | 43.07877 | -84.95817 | 8016 ft | 193 kts | 273° |
| 2026-04-26 18:50 | 43.08035 | -84.97642 | 8011 ft | 194 kts | 273° |
| 2026-04-26 18:50 | 43.08196 | -84.99491 | 8015 ft | 197 kts | 273° |
| 2026-04-26 18:50 | 43.08359 | -85.01363 | 8002 ft | 199 kts | 273° |
| 2026-04-26 18:51 | 43.08521 | -85.03238 | 8004 ft | 198 kts | 273° |
| 2026-04-26 18:51 | 43.08683 | -85.05109 | 8002 ft | 198 kts | 272° |
| 2026-04-26 18:51 | 43.08841 | -85.06980 | 8010 ft | 199 kts | 273° |
| 2026-04-26 18:51 | 43.09005 | -85.08869 | 8004 ft | 200 kts | 273° |
| 2026-04-26 18:52 | 43.09168 | -85.10759 | 8002 ft | 201 kts | 272° |
| 2026-04-26 18:52 | 43.09332 | -85.12662 | 8003 ft | 201 kts | 271° |
| 2026-04-26 18:52 | 43.09494 | -85.14559 | 7998 ft | 201 kts | 271° |
| 2026-04-26 18:52 | 43.09654 | -85.16455 | 7995 ft | 201 kts | 272° |
| 2026-04-26 18:53 | 43.09819 | -85.18352 | 8002 ft | 201 kts | 274° |
| 2026-04-26 18:53 | 43.09981 | -85.20255 | 8003 ft | 201 kts | 269° |
| 2026-04-26 18:53 | 43.10139 | -85.22150 | 8006 ft | 201 kts | 274° |
| 2026-04-26 18:53 | 43.10302 | -85.24057 | 8000 ft | 202 kts | 273° |
| 2026-04-26 18:54 | 43.10453 | -85.25970 | 8002 ft | 202 kts | 271° |
| 2026-04-26 18:54 | 43.10622 | -85.27876 | 7991 ft | 202 kts | 275° |
| 2026-04-26 18:54 | 43.10786 | -85.29781 | 7998 ft | 202 kts | 271° |
| 2026-04-26 18:54 | 43.10943 | -85.31690 | 7993 ft | 202 kts | 272° |
| 2026-04-26 18:55 | 43.11107 | -85.33590 | 8001 ft | 201 kts | 273° |
| 2026-04-26 18:55 | 43.11263 | -85.35491 | 8000 ft | 200 kts | 272° |
| 2026-04-26 18:55 | 43.11418 | -85.37390 | 7989 ft | 201 kts | 274° |
| 2026-04-26 18:55 | 43.11579 | -85.39286 | 7998 ft | 200 kts | 273° |
| 2026-04-26 18:56 | 43.11737 | -85.41171 | 7997 ft | 199 kts | 273° |
| 2026-04-26 18:56 | 43.11891 | -85.43057 | 7986 ft | 200 kts | 272° |
| 2026-04-26 18:56 | 43.12050 | -85.44953 | 7983 ft | 201 kts | 273° |
| 2026-04-26 18:56 | 43.12206 | -85.46846 | 7986 ft | 200 kts | 273° |
| 2026-04-26 18:57 | 43.12361 | -85.48742 | 7982 ft | 200 kts | 273° |
| 2026-04-26 18:57 | 43.12465 | -85.49995 | 7982 ft | 200 kts | 272° |
| 2026-04-26 18:57 | 43.12672 | -85.52514 | 7991 ft | 199 kts | 273° |
| 2026-04-26 18:57 | 43.12825 | -85.54402 | 7982 ft | 200 kts | 271° |
| 2026-04-26 18:58 | 43.12979 | -85.56302 | 7988 ft | 201 kts | 275° |
| 2026-04-26 18:58 | 43.13141 | -85.58207 | 7985 ft | 202 kts | 272° |
| 2026-04-26 18:58 | 43.13290 | -85.60118 | 7982 ft | 202 kts | 270° |
| 2026-04-26 18:58 | 43.13446 | -85.62017 | 7980 ft | 200 kts | 274° |
| 2026-04-26 18:59 | 43.13604 | -85.63912 | 7987 ft | 201 kts | 269° |
| 2026-04-26 18:59 | 43.13753 | -85.65819 | 7995 ft | 201 kts | 273° |
| 2026-04-26 18:59 | 43.13910 | -85.67721 | 7990 ft | 201 kts | 272° |
| 2026-04-26 18:59 | 43.14061 | -85.69620 | 7984 ft | 201 kts | 271° |
| 2026-04-26 19:00 | 43.14214 | -85.71516 | 7994 ft | 200 kts | 272° |
| 2026-04-26 19:00 | 43.14368 | -85.73409 | 8046 ft | 198 kts | 270° |
| 2026-04-26 19:00 | 43.14517 | -85.75303 | 7997 ft | 201 kts | 270° |
| 2026-04-26 19:00 | 43.14612 | -85.77211 | 7992 ft | 201 kts | 266° |
| 2026-04-26 19:01 | 43.14676 | -85.79120 | 7988 ft | 201 kts | 268° |
| 2026-04-26 19:01 | 43.14815 | -85.81035 | 7982 ft | 203 kts | 271° |
| 2026-04-26 19:01 | 43.14990 | -85.82951 | 7978 ft | 203 kts | 272° |
| 2026-04-26 19:01 | 43.15156 | -85.84838 | 7987 ft | 202 kts | 271° |
| 2026-04-26 19:02 | 43.15319 | -85.86755 | 7978 ft | 202 kts | 273° |
| 2026-04-26 19:02 | 43.15483 | -85.88684 | 7982 ft | 201 kts | 271° |
| 2026-04-26 19:02 | 43.15639 | -85.90561 | 7979 ft | 201 kts | 271° |
| 2026-04-26 19:02 | 43.15749 | -85.91848 | 7981 ft | 202 kts | 275° |
| 2026-04-26 19:03 | 43.15964 | -85.94371 | 7988 ft | 202 kts | 273° |
| 2026-04-26 19:03 | 43.16124 | -85.96284 | 7980 ft | 202 kts | 273° |
| 2026-04-26 19:03 | 43.16284 | -85.98193 | 7987 ft | 202 kts | 273° |
| 2026-04-26 19:03 | 43.16446 | -86.00109 | 7988 ft | 202 kts | 271° |
| 2026-04-26 19:04 | 43.16603 | -86.02019 | 7980 ft | 201 kts | 272° |
| 2026-04-26 19:04 | 43.16764 | -86.03922 | 7985 ft | 202 kts | 271° |
| 2026-04-26 19:04 | 43.16862 | -86.05830 | 7984 ft | 199 kts | 265° |
| 2026-04-26 19:04 | 43.16827 | -86.07726 | 7985 ft | 199 kts | 265° |
| 2026-04-26 19:05 | 43.16773 | -86.11523 | 7987 ft | 202 kts | 265° |
| 2026-04-26 19:05 | 43.16747 | -86.13446 | 7979 ft | 201 kts | 265° |
| 2026-04-26 19:05 | 43.16722 | -86.15356 | 7980 ft | 201 kts | 263° |
| 2026-04-26 19:06 | 43.16692 | -86.17267 | 7983 ft | 201 kts | 264° |
| 2026-04-26 19:06 | 43.16668 | -86.19170 | 7982 ft | 200 kts | 265° |
| 2026-04-26 19:06 | 43.16640 | -86.21075 | 7982 ft | 201 kts | 264° |
| 2026-04-26 19:06 | 43.16611 | -86.22984 | 7990 ft | 201 kts | 265° |
| 2026-04-26 19:07 | 43.16582 | -86.24904 | 7984 ft | 203 kts | 265° |
| 2026-04-26 19:07 | 43.16554 | -86.26825 | 7978 ft | 201 kts | 265° |
| 2026-04-26 19:07 | 43.16525 | -86.28734 | 7980 ft | 200 kts | 265° |
| 2026-04-26 19:07 | 43.16495 | -86.30640 | 7978 ft | 200 kts | 265° |
| 2026-04-26 19:08 | 43.16466 | -86.32540 | 7978 ft | 199 kts | 264° |
| 2026-04-26 19:08 | 43.16437 | -86.34438 | 7981 ft | 199 kts | 264° |
| 2026-04-26 19:08 | 43.16407 | -86.36334 | 7980 ft | 199 kts | 264° |
| 2026-04-26 19:08 | 43.16376 | -86.38226 | 7979 ft | 199 kts | 264° |
| 2026-04-26 19:09 | 43.16346 | -86.40116 | 7979 ft | 198 kts | 264° |
| 2026-04-26 19:09 | 43.16315 | -86.42004 | 7979 ft | 198 kts | 264° |
| 2026-04-26 19:09 | 43.16284 | -86.43891 | 7978 ft | 198 kts | 264° |
| 2026-04-26 19:09 | 43.16253 | -86.45780 | 7979 ft | 198 kts | 264° |
| 2026-04-26 19:10 | 43.16221 | -86.47638 | 7978 ft | 198 kts | 264° |
| 2026-04-26 19:10 | 43.16189 | -86.49522 | 7985 ft | 198 kts | 264° |
| 2026-04-26 19:10 | 43.16157 | -86.51407 | 7985 ft | 198 kts | 264° |
| 2026-04-26 19:10 | 43.16124 | -86.53290 | 7985 ft | 198 kts | 264° |
| 2026-04-26 19:11 | 43.16092 | -86.55177 | 7986 ft | 198 kts | 264° |
| 2026-04-26 19:11 | 43.16058 | -86.57065 | 7995 ft | 198 kts | 264° |
| 2026-04-26 19:11 | 43.16025 | -86.58952 | 7994 ft | 198 kts | 264° |
| 2026-04-26 19:11 | 43.15991 | -86.60837 | 7996 ft | 198 kts | 264° |
| 2026-04-26 19:12 | 43.15956 | -86.62724 | 7994 ft | 198 kts | 264° |
| 2026-04-26 19:12 | 43.15934 | -86.63998 | 7994 ft | 198 kts | 264° |
| 2026-04-26 19:12 | 43.15889 | -86.66466 | 8066 ft | 195 kts | 264° |
| 2026-04-26 19:12 | 43.15853 | -86.68332 | 8066 ft | 196 kts | 264° |
| 2026-04-26 19:13 | 43.15818 | -86.70204 | 8066 ft | 197 kts | 264° |
| 2026-04-26 19:13 | 43.15782 | -86.72083 | 8064 ft | 197 kts | 264° |
| 2026-04-26 19:13 | 43.15746 | -86.73988 | 8064 ft | 198 kts | 264° |
| 2026-04-26 19:13 | 43.15710 | -86.75845 | 8064 ft | 198 kts | 264° |
| 2026-04-26 19:14 | 43.15674 | -86.77730 | 8064 ft | 198 kts | 264° |
| 2026-04-26 19:14 | 43.15636 | -86.79613 | 8070 ft | 198 kts | 264° |
| 2026-04-26 19:14 | 43.15599 | -86.81522 | 8066 ft | 198 kts | 264° |
| 2026-04-26 19:14 | 43.15587 | -86.82135 | 8066 ft | 198 kts | 264° |
| 2026-04-26 19:15 | 43.15524 | -86.85270 | 8066 ft | 198 kts | 264° |
| 2026-04-26 19:15 | 43.15486 | -86.87156 | 8066 ft | 198 kts | 264° |
| 2026-04-26 19:15 | 43.15448 | -86.89040 | 8066 ft | 198 kts | 264° |
| 2026-04-26 19:15 | 43.15409 | -86.90923 | 8065 ft | 198 kts | 264° |
| 2026-04-26 19:16 | 43.15370 | -86.92808 | 8064 ft | 198 kts | 264° |
| 2026-04-26 19:16 | 43.15330 | -86.94692 | 8067 ft | 198 kts | 264° |
| 2026-04-26 19:16 | 43.15291 | -86.96576 | 8072 ft | 198 kts | 264° |
| 2026-04-26 19:16 | 43.15251 | -86.98461 | 8072 ft | 198 kts | 264° |
| 2026-04-26 19:17 | 43.15210 | -87.00361 | 8009 ft | 201 kts | 264° |
| 2026-04-26 19:17 | 43.15169 | -87.02269 | 8006 ft | 200 kts | 264° |
| 2026-04-26 19:17 | 43.15127 | -87.04169 | 8006 ft | 199 kts | 264° |
| 2026-04-26 19:17 | 43.15085 | -87.06065 | 8006 ft | 199 kts | 264° |
| 2026-04-26 19:18 | 43.15042 | -87.07956 | 8006 ft | 199 kts | 264° |
| 2026-04-26 19:18 | 43.14999 | -87.09848 | 8006 ft | 198 kts | 264° |
| 2026-04-26 19:18 | 43.14956 | -87.11733 | 8008 ft | 198 kts | 264° |
| 2026-04-26 19:18 | 43.14912 | -87.13622 | 8008 ft | 198 kts | 264° |
| 2026-04-26 19:19 | 43.14868 | -87.15509 | 8010 ft | 198 kts | 264° |
| 2026-04-26 19:19 | 43.14824 | -87.17398 | 8009 ft | 198 kts | 264° |
| 2026-04-26 19:19 | 43.14780 | -87.19284 | 8009 ft | 198 kts | 264° |
| 2026-04-26 19:19 | 43.14735 | -87.21171 | 8009 ft | 198 kts | 264° |
| 2026-04-26 19:20 | 43.14671 | -87.23051 | 8010 ft | 197 kts | 258° |
| 2026-04-26 19:20 | 43.14484 | -87.24135 | 8012 ft | 194 kts | 249° |
| 2026-04-26 19:20 | 43.13989 | -87.26218 | 7998 ft | 195 kts | 249° |
| 2026-04-26 19:20 | 43.13627 | -87.28010 | 7997 ft | 196 kts | 251° |
| 2026-04-26 19:21 | 43.13295 | -87.29815 | 7997 ft | 195 kts | 251° |
| 2026-04-26 19:21 | 43.12963 | -87.31619 | 8008 ft | 195 kts | 251° |
| 2026-04-26 19:21 | 43.12627 | -87.33415 | 8012 ft | 195 kts | 251° |
| 2026-04-26 19:21 | 43.12290 | -87.35213 | 8011 ft | 195 kts | 251° |
| 2026-04-26 19:22 | 43.11952 | -87.37012 | 8008 ft | 195 kts | 251° |
| 2026-04-26 19:22 | 43.11615 | -87.38808 | 8008 ft | 195 kts | 251° |
| 2026-04-26 19:22 | 43.11277 | -87.40607 | 8013 ft | 195 kts | 251° |
| 2026-04-26 19:22 | 43.10938 | -87.42404 | 8013 ft | 195 kts | 251° |
| 2026-04-26 19:23 | 43.10600 | -87.44200 | 8014 ft | 195 kts | 251° |
| 2026-04-26 19:23 | 43.10262 | -87.45997 | 8014 ft | 195 kts | 251° |
| 2026-04-26 19:23 | 43.09923 | -87.47792 | 8013 ft | 195 kts | 251° |
| 2026-04-26 19:23 | 43.09584 | -87.49587 | 8013 ft | 195 kts | 251° |
| 2026-04-26 19:24 | 43.09245 | -87.51383 | 8010 ft | 195 kts | 251° |
| 2026-04-26 19:24 | 43.08905 | -87.53178 | 8010 ft | 195 kts | 251° |
| 2026-04-26 19:24 | 43.08225 | -87.56768 | 8009 ft | 195 kts | 251° |
| 2026-04-26 19:25 | 43.07885 | -87.58562 | 8009 ft | 195 kts | 251° |
| 2026-04-26 19:25 | 43.07774 | -87.59145 | 8009 ft | 195 kts | 251° |
| 2026-04-26 19:25 | 43.07203 | -87.62149 | 8008 ft | 195 kts | 251° |
| 2026-04-26 19:25 | 43.06862 | -87.63943 | 8001 ft | 191 kts | 251° |
| 2026-04-26 19:26 | 43.06528 | -87.65699 | 7569 ft | 194 kts | 251° |
| 2026-04-26 19:26 | 43.06186 | -87.67481 | 7211 ft | 193 kts | 251° |
| 2026-04-26 19:26 | 43.05849 | -87.69252 | 6863 ft | 192 kts | 251° |
| 2026-04-26 19:26 | 43.05511 | -87.71020 | 6526 ft | 192 kts | 251° |
| 2026-04-26 19:27 | 43.05174 | -87.72786 | 6166 ft | 192 kts | 251° |
| 2026-04-26 19:27 | 43.04843 | -87.74523 | 6007 ft | 181 kts | 251° |
| 2026-04-26 19:27 | 43.04539 | -87.76126 | 6001 ft | 167 kts | 250° |
| 2026-04-26 19:27 | 43.04254 | -87.77616 | 5994 ft | 157 kts | 250° |
| 2026-04-26 19:28 | 43.03987 | -87.79005 | 5992 ft | 149 kts | 249° |
| 2026-04-26 19:28 | 43.03730 | -87.80347 | 5992 ft | 143 kts | 249° |
| 2026-04-26 19:28 | 43.03481 | -87.81639 | 5991 ft | 138 kts | 249° |
| 2026-04-26 19:28 | 43.03222 | -87.82960 | 6004 ft | 153 kts | 249° |
| 2026-04-26 19:29 | 43.02934 | -87.84450 | 6008 ft | 170 kts | 250° |
| 2026-04-26 19:29 | 43.02626 | -87.86055 | 6007 ft | 179 kts | 250° |
| 2026-04-26 19:29 | 43.02305 | -87.87730 | 6009 ft | 185 kts | 250° |
| 2026-04-26 19:29 | 43.01975 | -87.89445 | 6006 ft | 188 kts | 250° |
| 2026-04-26 19:30 | 43.01640 | -87.91183 | 6007 ft | 190 kts | 250° |
| 2026-04-26 19:30 | 43.01301 | -87.92937 | 6008 ft | 192 kts | 250° |
| 2026-04-26 19:30 | 43.01071 | -87.94126 | 6009 ft | 192 kts | 250° |
| 2026-04-26 19:30 | 43.00845 | -87.95298 | 6008 ft | 193 kts | 250° |
| 2026-04-26 19:31 | 43.00385 | -87.97672 | 6007 ft | 194 kts | 250° |
| 2026-04-26 19:31 | 43.00035 | -87.99425 | 6009 ft | 193 kts | 247° |
| 2026-04-26 19:31 | 42.99623 | -88.01092 | 5996 ft | 175 kts | 246° |
| 2026-04-26 19:31 | 42.99270 | -88.02569 | 5989 ft | 153 kts | 246° |
| 2026-04-26 19:32 | 42.98951 | -88.03878 | 5992 ft | 140 kts | 245° |
| 2026-04-26 19:32 | 42.98652 | -88.05099 | 5989 ft | 131 kts | 243° |
| 2026-04-26 19:32 | 42.98370 | -88.06248 | 5989 ft | 124 kts | 243° |
| 2026-04-26 19:32 | 42.98103 | -88.07339 | 6007 ft | 119 kts | 243° |
| 2026-04-26 19:33 | 42.97828 | -88.08372 | 6008 ft | 112 kts | 237° |
| 2026-04-26 19:33 | 42.97442 | -88.09275 | 5923 ft | 105 kts | 226° |
| 2026-04-26 19:33 | 42.96968 | -88.10032 | 5604 ft | 105 kts | 216° |
| 2026-04-26 19:33 | 42.96420 | -88.10654 | 5315 ft | 101 kts | 206° |
| 2026-04-26 19:34 | 42.95823 | -88.11126 | 5041 ft | 98 kts | 197° |
| 2026-04-26 19:34 | 42.95182 | -88.11458 | 4742 ft | 98 kts | 188° |
| 2026-04-26 19:34 | 42.94515 | -88.11640 | 4436 ft | 97 kts | 179° |
| 2026-04-26 19:34 | 42.93847 | -88.11673 | 4154 ft | 95 kts | 170° |
| 2026-04-26 19:35 | 42.93190 | -88.11603 | 3894 ft | 92 kts | 162° |
| 2026-04-26 19:35 | 42.92581 | -88.11352 | 3510 ft | 93 kts | 153° |
| 2026-04-26 19:35 | 42.92006 | -88.10950 | 3118 ft | 93 kts | 143° |
| 2026-04-26 19:35 | 42.91500 | -88.10415 | 2725 ft | 92 kts | 133° |
| 2026-04-26 19:36 | 42.91079 | -88.09770 | 2392 ft | 89 kts | 121° |
| 2026-04-26 19:36 | 42.90854 | -88.09301 | 2180 ft | 90 kts | 120° |
| 2026-04-26 19:36 | 42.90528 | -88.08244 | 2003 ft | 93 kts | 109° |
| 2026-04-26 19:36 | 42.90401 | -88.07297 | 2009 ft | 115 kts | 97° |
| 2026-04-26 19:37 | 42.90438 | -88.06100 | 2009 ft | 138 kts | 84° |
| 2026-04-26 19:37 | 42.90729 | -88.04776 | 2005 ft | 151 kts | 73° |
| 2026-04-26 19:37 | 42.91056 | -88.03460 | 1999 ft | 141 kts | 74° |
| 2026-04-26 19:37 | 42.91357 | -88.02238 | 1993 ft | 129 kts | 76° |
| 2026-04-26 19:38 | 42.91625 | -88.01146 | 1986 ft | 113 kts | 76° |
| 2026-04-26 19:38 | 42.91858 | -88.00203 | 1990 ft | 100 kts | 77° |
| 2026-04-26 19:38 | 42.92067 | -87.99332 | 1989 ft | 94 kts | 75° |
| 2026-04-26 19:38 | 42.92265 | -87.98522 | 1988 ft | 89 kts | 76° |
| 2026-04-26 19:39 | 42.92485 | -87.97753 | 1838 ft | 83 kts | 72° |
| 2026-04-26 19:39 | 42.92695 | -87.97007 | 1607 ft | 82 kts | 80° |
| 2026-04-26 19:39 | 42.92867 | -87.96274 | 1485 ft | 83 kts | 77° |
| 2026-04-26 19:39 | 42.93039 | -87.95518 | 1365 ft | 82 kts | 77° |
| 2026-04-26 19:40 | 42.93206 | -87.94750 | 1180 ft | 89 kts | 77° |
| 2026-04-26 19:40 | 42.93380 | -87.93967 | 1106 ft | 86 kts | 75° |
| 2026-04-26 19:40 | 42.93583 | -87.93193 | 941 ft | 89 kts | 78° |
| 2026-04-26 19:40 | 42.93760 | -87.92422 | 835 ft | 83 kts | 77° |
| 2026-04-26 19:41 | 42.93934 | -87.91682 | 685 ft | 77 kts | 77° |
| 2026-04-26 19:41 | 42.94043 | -87.91214 | 683 ft | 37 kts | 71° |
| 2026-04-26 19:41 | 42.94121 | -87.90911 | 683 ft | 34 kts | 76° |
| 2026-04-26 19:41 | 42.94144 | -87.90727 | 683 ft | 20 kts | 118° |
| 2026-04-26 19:42 | 42.94071 | -87.90646 | 683 ft | 3 kts | 90° |
| 2026-04-26 19:42 | 42.94075 | -87.90617 | 683 ft | 12 kts | 74° |
| 2026-04-26 19:43 | 42.94115 | -87.90456 | 683 ft | 25 kts | 72° |
| 2026-04-26 19:43 | 42.94179 | -87.90187 | 683 ft | 32 kts | 71° |
| 2026-04-26 19:43 | 42.94221 | -87.89925 | 683 ft | 21 kts | 119° |
| 2026-04-26 19:43 | 42.94105 | -87.89881 | 683 ft | 22 kts | 181° |
| 2026-04-26 19:44 | 42.93912 | -87.89886 | 683 ft | 33 kts | 181° |
| 2026-04-26 19:44 | 42.93671 | -87.89891 | 683 ft | 32 kts | 179° |
| 2026-04-26 19:44 | 42.93550 | -87.89985 | 683 ft | 18 kts | 259° |
| 2026-04-26 19:44 | 42.93508 | -87.90131 | 683 ft | 10 kts | 189° |
| 2026-04-26 19:45 | 42.93427 | -87.90144 | 683 ft | 11 kts | 226° |
| 2026-04-26 19:45 | 42.93413 | -87.90253 | 683 ft | 8 kts | 210° |
| 2026-04-26 19:45 | 42.93375 | -87.90257 | 683 ft | 0 kts | 181° |